Time;durP1;ratioP1;P1;durP2;ratioP2;P2;SDS_P1;SDS_P2;PMS_P1;PMS_P2;Temp;Humidity;BMP_temperature;BMP_pressure;BME280_temperature;BME280_humidity;BME280_pressure;Samples;Min_cycle;Max_cycle;Signal;HPM_P1;HPM_P2
2023/12/22 00:01:58;;;;;;;2.00;0.83;;;6.20;99.90;;;;;;5139275;27;20426;-69
2023/12/22 00:04:26;;;;;;;6.43;0.90;;;6.20;99.90;;;;;;5139222;27;20510;-70
2023/12/22 00:06:54;;;;;;;9.53;1.13;;;6.10;99.90;;;;;;5137153;27;20445;-70
2023/12/22 00:09:22;;;;;;;4.00;1.10;;;6.20;99.90;;;;;;5138570;27;20518;-70
2023/12/22 00:11:49;;;;;;;7.10;1.10;;;6.20;99.90;;;;;;5119799;27;20445;-70
2023/12/22 00:14:19;;;;;;;5.63;1.13;;;6.30;99.90;;;;;;5137460;27;20478;-71
2023/12/22 00:16:45;;;;;;;9.77;1.60;;;6.30;99.90;;;;;;5137871;27;20880;-71
2023/12/22 00:19:17;;;;;;;5.70;1.23;;;6.40;99.90;;;;;;5137126;27;20505;-70
2023/12/22 00:21:45;;;;;;;9.47;1.40;;;6.40;99.90;;;;;;5137783;27;20999;-70
2023/12/22 00:24:12;;;;;;;4.20;1.03;;;6.50;99.90;;;;;;5138450;27;20434;-70
2023/12/22 00:26:39;;;;;;;9.47;1.20;;;6.60;99.90;;;;;;5138040;27;20442;-70
2023/12/22 00:29:06;;;;;;;7.73;1.20;;;6.70;99.90;;;;;;5137356;27;20452;-70
2023/12/22 00:31:34;;;;;;;5.90;1.33;;;6.70;99.90;;;;;;5136875;27;20803;-70
2023/12/22 00:34:02;;;;;;;2.87;0.80;;;6.80;99.90;;;;;;5137003;27;20480;-70
2023/12/22 00:36:32;;;;;;;3.93;0.90;;;6.80;99.90;;;;;;5101511;27;20475;-70
2023/12/22 00:38:59;;;;;;;5.10;1.40;;;6.90;99.90;;;;;;5137109;27;20866;-70
2023/12/22 00:41:29;;;;;;;5.33;1.30;;;6.90;99.90;;;;;;5137073;27;20444;-71
2023/12/22 00:43:56;;;;;;;4.70;1.20;;;6.90;99.90;;;;;;5136226;27;20470;-71
2023/12/22 00:46:24;;;;;;;6.60;1.70;;;6.90;99.90;;;;;;5136560;27;20449;-70
2023/12/22 00:48:50;;;;;;;7.00;1.03;;;6.90;99.90;;;;;;5136379;27;20445;-69
2023/12/22 00:51:18;;;;;;;6.20;1.30;;;6.90;99.90;;;;;;5136927;27;20816;-70
2023/12/22 00:53:48;;;;;;;5.73;1.60;;;7.00;99.90;;;;;;5136674;27;20478;-69
2023/12/22 00:56:15;;;;;;;5.87;1.17;;;7.10;99.90;;;;;;5144696;27;20453;-70
2023/12/22 00:58:42;;;;;;;6.57;1.70;;;7.10;99.90;;;;;;5125156;27;20445;-70
2023/12/22 01:01:09;;;;;;;4.33;1.00;;;7.10;99.90;;;;;;5139427;27;20975;-71
2023/12/22 01:03:36;;;;;;;8.73;1.80;;;7.10;99.90;;;;;;5118878;27;20446;-70
2023/12/22 01:06:05;;;;;;;7.50;1.40;;;7.10;99.90;;;;;;5135917;27;20449;-70
2023/12/22 01:08:31;;;;;;;5.43;1.60;;;7.00;99.90;;;;;;5135937;27;20514;-70
2023/12/22 01:11:03;;;;;;;3.80;1.10;;;7.10;99.90;;;;;;5135787;27;20514;-70
2023/12/22 01:13:30;;;;;;;8.37;1.57;;;7.00;99.90;;;;;;5136233;27;20834;-71
2023/12/22 01:15:58;;;;;;;7.23;1.67;;;7.00;99.90;;;;;;5135178;27;20475;-71
2023/12/22 01:18:28;;;;;;;12.63;2.00;;;7.00;99.90;;;;;;5136769;27;20444;-69
2023/12/22 01:20:55;;;;;;;9.50;1.60;;;7.00;99.90;;;;;;5136701;27;20469;-70
2023/12/22 01:23:25;;;;;;;3.40;1.10;;;7.00;99.90;;;;;;5136834;27;20442;-70
2023/12/22 01:25:53;;;;;;;12.20;2.33;;;7.10;99.90;;;;;;5136384;27;20441;-69
2023/12/22 01:28:28;;;;;;;6.57;1.67;;;7.10;99.90;;;;;;5135591;27;20434;-69
2023/12/22 01:30:56;;;;;;;5.50;1.90;;;7.10;99.90;;;;;;5135355;27;20867;-70
2023/12/22 01:33:23;;;;;;;5.10;1.80;;;7.20;99.90;;;;;;5136069;27;21002;-70
2023/12/22 01:35:50;;;;;;;6.53;2.07;;;7.10;99.90;;;;;;5135863;27;20450;-70
2023/12/22 01:38:17;;;;;;;12.60;1.70;;;7.10;99.90;;;;;;5135987;27;20449;-70
2023/12/22 01:40:45;;;;;;;5.60;1.70;;;7.10;99.90;;;;;;5136690;27;20457;-69
2023/12/22 01:43:13;;;;;;;5.97;1.33;;;7.10;99.90;;;;;;5139133;27;20434;-70
2023/12/22 01:45:43;;;;;;;4.30;2.17;;;7.10;99.90;;;;;;5129815;27;20470;-71
2023/12/22 01:48:14;;;;;;;9.13;1.40;;;6.90;99.90;;;;;;5135617;28;20450;-70
2023/12/22 01:50:41;;;;;;;16.23;2.00;;;6.90;99.90;;;;;;5138388;28;20472;-70
2023/12/22 01:53:08;;;;;;;8.03;1.77;;;6.90;99.90;;;;;;5137726;28;20482;-71
2023/12/22 01:55:35;;;;;;;6.57;1.20;;;6.90;99.90;;;;;;5117954;28;20541;-70
2023/12/22 01:58:04;;;;;;;12.37;1.80;;;6.90;99.90;;;;;;5135290;28;20446;-70
2023/12/22 02:00:31;;;;;;;9.93;1.77;;;6.80;99.90;;;;;;5135480;28;20465;-70
2023/12/22 02:02:59;;;;;;;4.70;1.70;;;6.80;99.90;;;;;;5134920;28;20448;-70
2023/12/22 02:05:26;;;;;;;6.67;1.57;;;6.70;99.90;;;;;;5117530;28;20450;-70
2023/12/22 02:07:54;;;;;;;7.83;1.50;;;6.70;99.90;;;;;;5135244;28;20428;-70
2023/12/22 02:10:24;;;;;;;12.03;1.63;;;6.70;99.90;;;;;;5135086;28;20466;-70
2023/12/22 02:12:54;;;;;;;6.13;1.23;;;6.70;99.90;;;;;;5117993;28;20422;-70
2023/12/22 02:15:21;;;;;;;10.50;1.83;;;6.60;99.90;;;;;;5136986;28;20430;-69
2023/12/22 02:17:55;;;;;;;9.57;1.80;;;6.60;99.90;;;;;;5135836;28;20449;-70
2023/12/22 02:20:25;;;;;;;10.00;2.10;;;6.70;99.90;;;;;;5135194;28;20461;-69
2023/12/22 02:22:56;;;;;;;9.77;2.20;;;6.70;99.90;;;;;;5135665;28;20448;-69
2023/12/22 02:25:23;;;;;;;8.03;1.80;;;6.60;99.90;;;;;;5135635;28;20904;-69
2023/12/22 02:27:53;;;;;;;13.93;2.90;;;6.70;99.90;;;;;;5136094;27;20558;-70
2023/12/22 02:30:27;;;;;;;10.70;2.67;;;6.80;99.90;;;;;;5137826;27;20970;-70
2023/12/22 02:33:03;;;;;;;11.97;2.20;;;6.90;99.90;;;;;;5140036;27;20438;-70
2023/12/22 02:35:37;;;;;;;9.33;2.33;;;6.90;99.90;;;;;;5145779;27;20451;-70
2023/12/22 02:38:08;;;;;;;12.40;3.03;;;7.00;99.90;;;;;;5147388;27;20445;-70
2023/12/22 02:40:37;;;;;;;8.73;2.40;;;7.00;99.90;;;;;;5132410;27;20982;-70
2023/12/22 02:43:07;;;;;;;6.90;2.20;;;6.90;99.90;;;;;;5149780;27;20882;-71
2023/12/22 02:45:34;;;;;;;9.33;2.17;;;6.80;99.90;;;;;;5149380;27;20423;-70
2023/12/22 02:48:01;;;;;;;11.20;2.20;;;6.90;99.90;;;;;;5130157;27;20442;-70
2023/12/22 02:50:28;;;;;;;8.83;2.17;;;6.80;99.90;;;;;;5147171;27;20518;-70
2023/12/22 02:52:54;;;;;;;15.70;2.70;;;6.80;99.90;;;;;;5147313;27;20442;-71
2023/12/22 02:55:23;;;;;;;13.83;2.50;;;6.80;99.90;;;;;;5144715;27;20485;-70
2023/12/22 02:57:49;;;;;;;9.83;2.30;;;6.90;99.90;;;;;;5143805;27;20442;-70
2023/12/22 03:00:16;;;;;;;14.80;2.87;;;6.90;99.90;;;;;;5142985;27;20990;-70
2023/12/22 03:02:43;;;;;;;19.80;4.57;;;6.90;99.90;;;;;;5141677;27;20820;-70
2023/12/22 03:05:10;;;;;;;11.20;2.40;;;6.90;99.90;;;;;;5142102;27;20448;-70
2023/12/22 03:07:38;;;;;;;12.13;2.40;;;6.90;99.90;;;;;;5142166;27;20441;-70
2023/12/22 03:10:05;;;;;;;10.30;1.80;;;6.90;99.90;;;;;;5140857;27;20477;-70
2023/12/22 03:12:34;;;;;;;6.50;2.50;;;6.90;99.90;;;;;;5122170;27;20446;-70
2023/12/22 03:15:02;;;;;;;12.30;3.03;;;7.00;99.90;;;;;;5121864;27;20517;-71
2023/12/22 03:17:29;;;;;;;10.47;3.10;;;7.10;99.90;;;;;;5139591;27;20446;-70
2023/12/22 03:19:56;;;;;;;7.03;2.27;;;7.20;99.90;;;;;;5140023;27;20468;-70
2023/12/22 03:22:24;;;;;;;8.60;2.30;;;7.20;99.90;;;;;;5120855;27;20790;-70
2023/12/22 03:24:52;;;;;;;9.77;2.67;;;7.20;99.90;;;;;;5139337;27;20461;-71
2023/12/22 03:27:20;;;;;;;17.00;2.70;;;7.30;99.90;;;;;;5139350;27;20438;-71
2023/12/22 03:29:49;;;;;;;10.23;2.60;;;7.30;99.90;;;;;;5120771;27;21017;-70
2023/12/22 03:32:16;;;;;;;12.87;2.20;;;7.30;99.90;;;;;;5139744;27;20895;-71
2023/12/22 03:34:43;;;;;;;8.93;2.77;;;7.40;99.90;;;;;;5139538;27;20485;-71
2023/12/22 03:37:12;;;;;;;19.37;3.17;;;7.30;99.90;;;;;;5139173;27;20442;-71
2023/12/22 03:39:40;;;;;;;10.73;3.10;;;7.40;99.90;;;;;;5138576;27;20979;-70
2023/12/22 03:42:07;;;;;;;11.00;2.00;;;7.50;99.90;;;;;;5138970;27;20446;-71
2023/12/22 03:44:34;;;;;;;5.93;1.80;;;7.50;99.90;;;;;;5139029;27;20507;-71
2023/12/22 03:47:02;;;;;;;9.07;1.60;;;7.50;99.90;;;;;;5120028;27;20445;-70
2023/12/22 03:49:34;;;;;;;11.80;2.60;;;7.50;99.90;;;;;;5138372;27;20493;-70
2023/12/22 03:52:01;;;;;;;10.00;1.93;;;7.50;99.90;;;;;;5138519;27;20446;-71
2023/12/22 03:54:28;;;;;;;11.67;1.83;;;7.50;99.90;;;;;;5137902;27;20485;-71
2023/12/22 03:56:54;;;;;;;7.00;1.70;;;7.50;99.90;;;;;;5138454;27;20852;-70
2023/12/22 03:59:21;;;;;;;8.67;1.50;;;7.50;99.90;;;;;;5137689;27;20470;-70
2023/12/22 04:01:53;;;;;;;10.10;2.43;;;7.50;99.90;;;;;;5152164;27;20426;-70
2023/12/22 04:04:22;;;;;;;7.93;1.60;;;7.40;99.90;;;;;;5129896;27;21057;-71
2023/12/22 04:06:51;;;;;;;6.33;2.13;;;7.40;99.90;;;;;;5146310;27;20438;-71
2023/12/22 04:09:18;;;;;;;11.60;1.87;;;7.40;99.90;;;;;;5142320;27;20462;-70
2023/12/22 04:11:45;;;;;;;12.17;3.43;;;7.40;99.90;;;;;;5139851;27;20484;-70
2023/12/22 04:14:13;;;;;;;7.60;1.70;;;7.40;99.90;;;;;;5139457;27;20834;-71
2023/12/22 04:16:40;;;;;;;17.47;2.50;;;7.50;99.90;;;;;;5139092;27;20852;-71
2023/12/22 04:19:06;;;;;;;13.63;3.60;;;7.40;99.90;;;;;;5137802;27;20498;-70
2023/12/22 04:21:37;;;;;;;8.80;2.63;;;7.40;99.90;;;;;;5138510;27;20444;-70
2023/12/22 04:24:04;;;;;;;17.23;3.13;;;7.40;99.90;;;;;;5138500;27;20472;-71
2023/12/22 04:26:33;;;;;;;15.90;2.60;;;7.30;99.90;;;;;;5137599;27;20454;-71
2023/12/22 04:29:03;;;;;;;10.20;2.60;;;7.30;99.90;;;;;;5137693;27;20438;-70
2023/12/22 04:31:30;;;;;;;12.30;2.33;;;7.30;99.90;;;;;;5137865;27;20433;-70
2023/12/22 04:33:57;;;;;;;9.73;2.63;;;7.30;99.90;;;;;;5137680;27;20519;-70
2023/12/22 04:36:24;;;;;;;12.43;2.17;;;7.30;99.90;;;;;;5137422;27;20442;-71
2023/12/22 04:38:55;;;;;;;13.00;2.30;;;7.40;99.90;;;;;;5137655;27;20438;-70
2023/12/22 04:41:22;;;;;;;20.00;2.60;;;7.40;99.90;;;;;;5136869;27;20903;-70
2023/12/22 04:43:50;;;;;;;9.30;1.90;;;7.40;99.90;;;;;;5137345;27;20498;-71
2023/12/22 04:46:20;;;;;;;6.63;1.93;;;7.50;99.90;;;;;;5137098;27;20445;-71
2023/12/22 04:48:48;;;;;;;10.70;2.30;;;7.50;99.90;;;;;;5136431;27;20446;-71
2023/12/22 04:51:15;;;;;;;8.67;1.90;;;7.60;99.90;;;;;;5136174;27;20509;-71
2023/12/22 04:53:42;;;;;;;11.27;3.00;;;7.60;99.90;;;;;;5136777;27;20517;-71
2023/12/22 04:56:12;;;;;;;15.50;2.83;;;7.70;99.90;;;;;;5136850;27;20442;-71
2023/12/22 04:58:40;;;;;;;13.63;2.77;;;7.70;99.90;;;;;;5136865;27;20438;-71
2023/12/22 05:01:09;;;;;;;12.03;2.87;;;7.80;99.90;;;;;;5136599;27;20515;-70
2023/12/22 05:03:37;;;;;;;15.57;2.47;;;7.90;99.90;;;;;;5136574;27;20499;-71
2023/12/22 05:06:04;;;;;;;11.47;2.20;;;7.90;99.90;;;;;;5136279;27;20453;-70
2023/12/22 05:08:31;;;;;;;9.63;2.20;;;7.90;99.90;;;;;;5136383;27;20437;-71
2023/12/22 05:10:59;;;;;;;11.30;2.30;;;8.00;99.90;;;;;;5118479;27;20465;-70
2023/12/22 05:13:30;;;;;;;14.27;3.13;;;8.00;99.90;;;;;;5128778;27;20446;-71
2023/12/22 05:15:57;;;;;;;12.20;3.17;;;8.10;99.90;;;;;;5142494;27;20828;-70
2023/12/22 05:18:27;;;;;;;10.90;2.20;;;8.20;99.90;;;;;;5118511;27;20446;-71
2023/12/22 05:20:58;;;;;;;13.97;2.80;;;8.20;99.90;;;;;;5119376;27;20542;-70
2023/12/22 05:23:25;;;;;;;11.47;3.10;;;8.30;99.90;;;;;;5136856;27;20433;-70
2023/12/22 05:25:54;;;;;;;11.27;2.77;;;8.30;99.90;;;;;;5136948;27;20844;-71
2023/12/22 05:28:23;;;;;;;9.83;2.30;;;8.30;99.90;;;;;;5136918;27;20532;-71
2023/12/22 05:30:52;;;;;;;11.57;3.40;;;8.40;99.90;;;;;;5136440;27;20462;-71
2023/12/22 05:33:19;;;;;;;9.83;2.20;;;8.40;99.90;;;;;;5116269;27;20489;-71
2023/12/22 05:35:46;;;;;;;8.77;2.60;;;8.50;99.90;;;;;;5136792;27;20473;-71
2023/12/22 05:38:15;;;;;;;10.83;2.70;;;8.50;99.90;;;;;;5118484;27;20450;-71
2023/12/22 05:40:44;;;;;;;11.83;2.50;;;8.50;99.90;;;;;;5136192;27;20458;-71
2023/12/22 05:43:11;;;;;;;14.20;2.43;;;8.50;99.90;;;;;;5136191;27;20492;-71
2023/12/22 05:45:38;;;;;;;10.43;3.23;;;8.60;99.90;;;;;;5117987;28;20954;-71
2023/12/22 05:48:10;;;;;;;11.43;2.23;;;8.50;99.90;;;;;;5136099;27;20849;-71
2023/12/22 05:50:37;;;;;;;13.53;2.60;;;8.50;99.90;;;;;;5117594;28;20847;-71
2023/12/22 05:53:04;;;;;;;11.63;2.40;;;8.60;99.90;;;;;;5135903;28;20453;-71
2023/12/22 05:55:35;;;;;;;7.87;2.93;;;8.60;99.90;;;;;;5136435;28;20482;-71
2023/12/22 05:58:01;;;;;;;20.20;2.87;;;8.60;99.90;;;;;;5135925;28;20433;-71
2023/12/22 06:00:28;;;;;;;12.93;3.10;;;8.60;99.90;;;;;;5136064;28;20480;-71
2023/12/22 06:02:57;;;;;;;13.77;2.63;;;8.60;99.90;;;;;;5135926;27;20784;-72
2023/12/22 06:05:25;;;;;;;8.27;2.57;;;8.70;99.90;;;;;;5139430;27;20534;-71
2023/12/22 06:07:52;;;;;;;10.27;2.73;;;8.60;99.90;;;;;;5140061;27;20442;-72
2023/12/22 06:10:20;;;;;;;12.60;2.60;;;8.70;99.90;;;;;;5121263;27;20820;-71
2023/12/22 06:12:48;;;;;;;12.27;3.23;;;8.70;99.90;;;;;;5121089;27;20446;-71
2023/12/22 06:15:16;;;;;;;10.27;2.67;;;8.70;99.90;;;;;;5139598;27;20489;-71
2023/12/22 06:17:43;;;;;;;11.80;2.80;;;8.70;99.90;;;;;;5122108;27;20437;-72
2023/12/22 06:20:11;;;;;;;13.23;2.37;;;8.70;99.90;;;;;;5139547;27;20504;-71
2023/12/22 06:22:42;;;;;;;9.30;2.77;;;8.80;99.90;;;;;;5153554;27;20449;-71
2023/12/22 06:25:09;;;;;;;7.63;2.10;;;8.70;99.90;;;;;;5148651;27;20978;-72
2023/12/22 06:27:38;;;;;;;14.00;2.80;;;8.70;99.90;;;;;;5126536;27;20445;-70
2023/12/22 06:30:06;;;;;;;6.70;2.43;;;8.70;99.90;;;;;;5123382;27;20470;-70
2023/12/22 06:32:39;;;;;;;4.47;2.10;;;8.70;99.90;;;;;;5143461;27;20849;-70
2023/12/22 06:35:11;;;;;;;6.33;1.37;;;8.70;99.90;;;;;;5139840;27;20568;-70
2023/12/22 06:37:39;;;;;;;4.40;1.70;;;8.70;99.90;;;;;;5122498;27;20454;-71
2023/12/22 06:40:07;;;;;;;3.80;0.90;;;8.60;99.90;;;;;;5143975;27;20461;-71
2023/12/22 06:42:36;;;;;;;10.93;1.53;;;8.40;99.90;;;;;;5144645;27;20443;-70
2023/12/22 06:45:04;;;;;;;3.00;0.70;;;8.30;99.90;;;;;;5140612;27;20446;-70
2023/12/22 06:47:32;;;;;;;14.27;1.53;;;8.20;99.90;;;;;;5139519;27;20437;-70
2023/12/22 06:49:58;;;;;;;8.67;1.67;;;8.10;99.90;;;;;;5139148;27;20458;-69
2023/12/22 06:52:30;;;;;;;3.33;1.17;;;8.00;99.90;;;;;;5139502;27;20442;-70
2023/12/22 06:54:59;;;;;;;3.43;1.53;;;8.10;99.90;;;;;;5141171;27;20481;-70
2023/12/22 06:57:26;;;;;;;4.27;1.73;;;8.10;99.90;;;;;;5142153;27;20456;-69
2023/12/22 06:59:53;;;;;;;9.83;2.17;;;8.00;99.90;;;;;;5120281;27;20470;-69
2023/12/22 07:02:20;;;;;;;12.87;3.00;;;8.00;99.90;;;;;;5138363;27;20449;-70
2023/12/22 07:05:20;;;;;;;8.90;2.00;;;8.00;99.90;;;;;;5138687;27;20433;-69
2023/12/22 07:07:47;;;;;;;11.87;3.07;;;8.00;99.90;;;;;;5137714;27;20484;-68
2023/12/22 07:10:16;;;;;;;9.73;3.00;;;8.10;99.90;;;;;;5137657;27;20982;-69
2023/12/22 07:12:42;;;;;;;7.03;2.17;;;8.10;99.90;;;;;;5138348;27;20450;-68
2023/12/22 07:15:10;;;;;;;14.87;2.47;;;8.00;99.90;;;;;;5137562;27;20481;-68
2023/12/22 07:17:37;;;;;;;12.17;2.20;;;8.10;99.90;;;;;;5138063;27;20453;-69
2023/12/22 07:20:05;;;;;;;14.97;2.93;;;8.10;99.90;;;;;;5102917;27;20466;-68
2023/12/22 07:22:32;;;;;;;11.23;3.47;;;8.10;99.90;;;;;;5119839;27;20943;-69
2023/12/22 07:25:03;;;;;;;20.37;3.63;;;8.20;99.90;;;;;;5141324;27;20434;-69
2023/12/22 07:27:33;;;;;;;14.47;2.90;;;8.20;99.90;;;;;;5148049;27;20510;-68
2023/12/22 07:30:00;;;;;;;16.07;3.60;;;8.20;99.90;;;;;;5139176;27;20833;-68
2023/12/22 07:32:26;;;;;;;23.87;3.70;;;8.30;99.90;;;;;;5120142;27;20935;-69
2023/12/22 07:34:53;;;;;;;24.93;4.23;;;8.30;99.90;;;;;;5138402;27;20796;-69
2023/12/22 07:37:21;;;;;;;23.33;4.47;;;8.30;99.90;;;;;;5139478;27;20468;-69
2023/12/22 07:39:47;;;;;;;23.33;4.73;;;8.30;99.90;;;;;;5138320;27;20465;-68
2023/12/22 07:42:16;;;;;;;21.47;4.40;;;8.40;99.90;;;;;;5137761;27;20887;-69
2023/12/22 07:44:46;;;;;;;20.77;4.60;;;8.40;99.90;;;;;;5137415;27;20574;-69
2023/12/22 07:47:15;;;;;;;20.10;5.30;;;8.50;99.90;;;;;;5136957;27;20457;-69
2023/12/22 07:49:41;;;;;;;25.73;4.90;;;8.40;99.90;;;;;;5138676;27;20959;-68
2023/12/22 07:52:08;;;;;;;25.00;4.80;;;8.50;99.90;;;;;;5142987;27;20448;-69
2023/12/22 07:54:37;;;;;;;24.77;5.17;;;8.50;99.90;;;;;;5141132;27;20506;-68
2023/12/22 07:57:04;;;;;;;19.73;3.93;;;8.50;99.90;;;;;;5139232;27;20513;-68
2023/12/22 07:59:31;;;;;;;17.20;4.17;;;8.40;99.90;;;;;;5137826;27;20462;-68
2023/12/22 08:01:59;;;;;;;23.23;4.30;;;8.50;99.90;;;;;;5138465;27;20446;-69
2023/12/22 08:04:26;;;;;;;33.67;5.77;;;8.60;99.90;;;;;;5137688;27;20445;-69
2023/12/22 08:06:54;;;;;;;21.60;5.03;;;8.50;99.90;;;;;;5137234;27;20914;-69
2023/12/22 08:09:22;;;;;;;17.60;4.40;;;8.60;99.90;;;;;;5136891;27;20982;-68
2023/12/22 08:11:53;;;;;;;17.27;3.97;;;8.60;99.90;;;;;;5137214;27;20449;-69
2023/12/22 08:14:21;;;;;;;31.83;6.30;;;8.60;99.90;;;;;;5119013;27;20430;-68
2023/12/22 08:16:48;;;;;;;21.20;5.87;;;8.60;99.90;;;;;;5118257;27;20998;-69
2023/12/22 08:19:20;;;;;;;34.67;5.90;;;8.60;99.90;;;;;;5118340;27;20846;-68
2023/12/22 08:21:48;;;;;;;30.40;5.50;;;8.60;99.90;;;;;;5136780;27;20431;-69
2023/12/22 08:24:17;;;;;;;31.57;5.23;;;8.70;99.90;;;;;;5136883;27;20442;-69
2023/12/22 08:26:43;;;;;;;20.10;4.80;;;8.70;99.90;;;;;;5117698;27;20808;-69
2023/12/22 08:29:10;;;;;;;25.80;5.77;;;8.70;99.90;;;;;;5136114;27;20484;-68
2023/12/22 08:31:37;;;;;;;28.87;6.17;;;8.70;99.90;;;;;;5136266;27;20464;-69
2023/12/22 08:34:05;;;;;;;21.70;5.03;;;8.70;99.90;;;;;;5136335;27;20445;-69
2023/12/22 08:36:33;;;;;;;19.33;5.70;;;8.70;99.90;;;;;;5118554;27;20924;-69
2023/12/22 08:39:00;;;;;;;21.57;5.37;;;8.70;99.90;;;;;;5136614;27;20438;-68
2023/12/22 08:41:35;;;;;;;29.47;7.00;;;8.80;99.90;;;;;;5136639;27;20446;-69
2023/12/22 08:44:05;;;;;;;22.33;4.80;;;8.90;99.90;;;;;;5136318;27;20430;-69
2023/12/22 08:46:32;;;;;;;18.80;5.20;;;8.90;99.90;;;;;;5136221;27;20931;-69
2023/12/22 08:48:59;;;;;;;26.47;6.57;;;8.90;99.90;;;;;;5136000;27;20442;-68
2023/12/22 08:51:26;;;;;;;24.67;7.37;;;9.00;99.90;;;;;;5136314;27;20840;-69
2023/12/22 08:53:56;;;;;;;38.50;8.27;;;9.00;99.90;;;;;;5135657;27;20829;-69
2023/12/22 08:56:22;;;;;;;26.23;6.30;;;9.00;99.90;;;;;;5135479;27;20477;-68
2023/12/22 08:58:51;;;;;;;18.37;4.83;;;9.00;99.90;;;;;;5135664;27;20956;-67
2023/12/22 09:01:20;;;;;;;22.80;6.03;;;9.00;99.90;;;;;;5135473;27;20442;-69
2023/12/22 09:03:47;;;;;;;26.23;5.80;;;9.10;99.90;;;;;;5138767;27;20441;-66
2023/12/22 09:06:15;;;;;;;22.00;5.43;;;9.00;99.90;;;;;;5138697;27;20438;-66
2023/12/22 09:08:42;;;;;;;22.70;4.97;;;9.10;99.90;;;;;;5138553;27;20445;-66
2023/12/22 09:11:11;;;;;;;22.53;4.97;;;9.10;99.90;;;;;;5138829;27;20454;-66
2023/12/22 09:13:38;;;;;;;25.37;5.90;;;9.10;99.90;;;;;;5138725;27;20450;-66
2023/12/22 09:16:05;;;;;;;28.73;5.40;;;9.10;99.90;;;;;;5137545;27;20480;-66
2023/12/22 09:18:33;;;;;;;20.57;5.03;;;9.20;99.90;;;;;;5120266;27;20449;-66
2023/12/22 09:21:02;;;;;;;19.47;4.77;;;9.20;99.90;;;;;;5119625;27;20474;-66
2023/12/22 09:23:29;;;;;;;21.17;4.80;;;9.20;99.90;;;;;;5137886;27;20446;-66
2023/12/22 09:25:56;;;;;;;23.57;5.80;;;9.20;99.90;;;;;;5138245;27;20445;-66
2023/12/22 09:28:25;;;;;;;19.33;5.07;;;9.20;99.90;;;;;;5138097;27;20438;-66
2023/12/22 09:30:52;;;;;;;17.13;4.50;;;9.20;99.90;;;;;;5139073;27;20466;-66
2023/12/22 09:33:19;;;;;;;22.10;4.30;;;9.20;99.90;;;;;;5139197;27;20477;-66
2023/12/22 09:35:45;;;;;;;16.57;4.10;;;9.30;99.90;;;;;;5139231;27;20482;-67
2023/12/22 09:38:13;;;;;;;22.33;4.17;;;9.30;99.90;;;;;;5130649;27;20494;-66
2023/12/22 09:40:40;;;;;;;17.20;4.00;;;9.40;99.90;;;;;;5139594;27;20477;-67
2023/12/22 09:43:08;;;;;;;18.70;4.13;;;9.40;99.90;;;;;;5135604;27;20438;-66
2023/12/22 09:45:37;;;;;;;17.47;4.63;;;9.50;99.90;;;;;;5135908;27;20924;-66
2023/12/22 09:48:06;;;;;;;18.73;4.30;;;9.50;99.90;;;;;;5118034;27;20438;-67
2023/12/22 09:50:34;;;;;;;14.73;3.80;;;9.50;99.90;;;;;;5117902;28;20892;-66
2023/12/22 09:53:02;;;;;;;15.63;3.80;;;9.50;99.90;;;;;;5137311;28;20466;-66
2023/12/22 09:55:32;;;;;;;20.10;4.90;;;9.50;99.90;;;;;;5137641;28;20452;-67
2023/12/22 09:57:59;;;;;;;13.50;3.73;;;9.50;99.90;;;;;;5137688;28;20458;-66
2023/12/22 10:00:30;;;;;;;11.30;3.60;;;9.50;99.90;;;;;;5137528;28;20473;-66
2023/12/22 10:02:58;;;;;;;14.30;3.50;;;9.50;99.90;;;;;;5138080;28;20430;-66
2023/12/22 10:05:25;;;;;;;12.90;2.97;;;9.50;99.90;;;;;;5138018;28;20458;-66
2023/12/22 10:07:52;;;;;;;11.13;2.83;;;9.60;99.90;;;;;;5138815;28;20434;-66
2023/12/22 10:10:19;;;;;;;12.50;3.63;;;9.60;99.90;;;;;;5137334;28;20462;-67
2023/12/22 10:12:46;;;;;;;9.23;3.80;;;9.60;99.90;;;;;;5137927;28;20510;-66
2023/12/22 10:15:15;;;;;;;9.83;3.80;;;9.60;99.90;;;;;;5137956;28;20442;-66
2023/12/22 10:17:42;;;;;;;9.40;3.20;;;9.60;99.90;;;;;;5137772;28;20485;-66
2023/12/22 10:20:11;;;;;;;10.23;2.93;;;9.60;99.90;;;;;;5137980;28;20462;-66
2023/12/22 10:22:38;;;;;;;10.00;3.60;;;9.60;99.90;;;;;;5137540;28;20438;-66
2023/12/22 10:25:06;;;;;;;8.53;3.43;;;9.60;99.90;;;;;;5137657;28;20442;-66
2023/12/22 10:27:37;;;;;;;11.40;3.60;;;9.60;99.90;;;;;;5138777;28;20791;-66
2023/12/22 10:30:06;;;;;;;8.00;2.93;;;9.60;99.90;;;;;;5143088;28;20454;-67
2023/12/22 10:32:32;;;;;;;4.63;2.43;;;9.60;99.90;;;;;;5137401;28;20445;-67
2023/12/22 10:34:59;;;;;;;8.73;3.23;;;9.60;99.90;;;;;;5117028;28;20442;-66
2023/12/22 10:37:28;;;;;;;5.73;3.10;;;9.60;99.90;;;;;;5135031;28;20477;-66
2023/12/22 10:39:56;;;;;;;8.10;3.17;;;9.50;99.90;;;;;;5135627;28;20469;-66
2023/12/22 10:42:22;;;;;;;6.03;3.40;;;9.50;99.90;;;;;;5135842;28;20441;-66
2023/12/22 10:44:53;;;;;;;3.20;2.40;;;9.50;99.90;;;;;;5135586;28;20442;-66
2023/12/22 10:47:21;;;;;;;5.43;2.70;;;9.60;99.90;;;;;;5136273;28;20427;-66
2023/12/22 10:49:47;;;;;;;4.87;2.70;;;9.50;99.90;;;;;;5138812;27;20472;-66
2023/12/22 10:52:17;;;;;;;4.90;3.30;;;9.60;99.90;;;;;;5145787;27;20438;-67
2023/12/22 10:54:45;;;;;;;5.20;2.70;;;9.60;99.90;;;;;;5146810;27;20446;-66
2023/12/22 10:57:13;;;;;;;5.20;2.77;;;9.60;99.90;;;;;;5146483;27;20482;-67
2023/12/22 10:59:46;;;;;;;5.00;2.63;;;9.60;99.90;;;;;;5146317;27;20466;-66
2023/12/22 11:02:16;;;;;;;4.03;2.73;;;9.70;99.90;;;;;;5147185;27;20463;-67
2023/12/22 11:04:51;;;;;;;7.57;2.47;;;9.70;99.90;;;;;;5145277;27;20422;-66
2023/12/22 11:07:20;;;;;;;4.60;2.37;;;9.80;99.90;;;;;;5144304;27;20958;-67
2023/12/22 11:09:51;;;;;;;6.67;2.70;;;9.80;99.90;;;;;;5124350;27;20495;-66
2023/12/22 11:12:20;;;;;;;2.43;1.97;;;9.90;99.90;;;;;;5123678;27;20463;-67
2023/12/22 11:14:50;;;;;;;5.67;2.20;;;9.90;99.90;;;;;;5141531;27;20521;-67
2023/12/22 11:17:20;;;;;;;4.07;2.73;;;10.00;99.90;;;;;;5121872;27;20834;-66
2023/12/22 11:19:50;;;;;;;2.70;1.90;;;9.90;99.90;;;;;;5122004;27;20464;-66
2023/12/22 11:22:18;;;;;;;4.70;2.30;;;10.00;99.90;;;;;;5140110;27;20438;-67
2023/12/22 11:24:48;;;;;;;1.80;1.70;;;10.10;99.90;;;;;;5139637;27;20481;-66
2023/12/22 11:27:19;;;;;;;4.63;1.80;;;10.10;99.90;;;;;;5139664;27;20415;-66
2023/12/22 11:29:47;;;;;;;4.10;2.30;;;10.10;99.90;;;;;;5120844;27;20505;-66
2023/12/22 11:32:16;;;;;;;2.90;1.97;;;10.10;99.90;;;;;;5139288;27;20449;-66
2023/12/22 11:34:44;;;;;;;4.57;2.03;;;10.10;99.90;;;;;;5121181;27;20445;-66
2023/12/22 11:37:12;;;;;;;4.23;1.97;;;10.20;99.90;;;;;;5138851;27;20485;-66
2023/12/22 11:39:40;;;;;;;5.80;2.30;;;10.20;99.90;;;;;;5139415;27;20480;-65
2023/12/22 11:42:10;;;;;;;2.47;1.70;;;10.20;99.90;;;;;;5139656;27;20469;-65
2023/12/22 11:44:37;;;;;;;5.20;1.80;;;10.20;99.90;;;;;;5140305;27;20441;-65
2023/12/22 11:47:05;;;;;;;4.00;1.73;;;10.20;99.90;;;;;;5139757;27;20441;-65
2023/12/22 11:49:33;;;;;;;1.93;1.37;;;10.20;99.90;;;;;;5140419;27;20465;-65
2023/12/22 11:52:01;;;;;;;3.63;1.47;;;10.30;99.90;;;;;;5140377;27;20499;-65
2023/12/22 11:54:50;;;;;;;3.90;1.50;;;10.30;99.90;;;;;;5150787;27;20550;-65
2023/12/22 11:57:34;;;;;;;1.80;1.10;;;10.30;99.90;;;;;;5132299;27;20485;-66
2023/12/22 12:00:34;;;;;;;6.10;1.70;;;10.40;99.90;;;;;;5138365;27;20461;-66
2023/12/22 12:03:07;;;;;;;5.50;1.17;;;10.50;99.90;;;;;;5137531;27;20448;-66
2023/12/22 12:05:34;;;;;;;4.20;1.10;;;10.40;99.90;;;;;;5138265;27;20450;-66
2023/12/22 12:08:07;;;;;;;3.57;1.30;;;10.50;99.90;;;;;;5138911;27;20438;-66
2023/12/22 12:10:53;;;;;;;6.23;1.00;;;10.60;99.90;;;;;;5139259;27;20982;-66
2023/12/22 12:13:25;;;;;;;4.10;1.20;;;10.60;99.90;;;;;;5139163;27;20497;-66
2023/12/22 12:15:55;;;;;;;6.17;1.53;;;10.60;99.90;;;;;;5139505;27;20426;-66
2023/12/22 12:18:23;;;;;;;1.30;1.20;;;10.70;99.90;;;;;;5139082;27;20481;-66
2023/12/22 12:20:50;;;;;;;5.20;1.60;;;10.70;99.90;;;;;;5139374;27;20514;-66
2023/12/22 12:23:17;;;;;;;6.00;1.80;;;10.70;99.90;;;;;;5139874;27;20807;-66
2023/12/22 12:25:44;;;;;;;2.60;1.10;;;10.80;99.90;;;;;;5139161;27;20446;-66
2023/12/22 12:28:11;;;;;;;3.30;0.97;;;10.90;99.90;;;;;;5138853;27;20834;-67
2023/12/22 12:30:42;;;;;;;4.87;1.40;;;10.90;99.90;;;;;;5139804;27;20465;-66
2023/12/22 12:33:10;;;;;;;7.57;1.43;;;11.00;99.90;;;;;;5139584;27;20437;-66
2023/12/22 12:35:38;;;;;;;3.10;1.20;;;11.00;99.90;;;;;;5138516;27;20814;-67
2023/12/22 12:38:05;;;;;;;3.80;1.03;;;11.00;99.90;;;;;;5138010;27;20473;-66
2023/12/22 12:40:35;;;;;;;2.77;0.90;;;11.00;99.90;;;;;;5139014;27;20466;-66
2023/12/22 12:43:02;;;;;;;4.90;1.43;;;11.10;99.90;;;;;;5138555;27;20442;-66
2023/12/22 12:45:29;;;;;;;6.40;1.33;;;11.10;99.90;;;;;;5138790;27;20446;-66
2023/12/22 12:47:58;;;;;;;4.10;1.13;;;11.10;99.90;;;;;;5138465;27;20438;-66
2023/12/22 12:50:24;;;;;;;3.67;1.33;;;11.10;99.90;;;;;;5138467;27;20462;-66
2023/12/22 12:52:54;;;;;;;2.03;1.20;;;11.10;99.90;;;;;;5138359;27;20538;-66
2023/12/22 12:55:23;;;;;;;2.33;1.67;;;11.10;99.90;;;;;;5138228;27;20499;-66
2023/12/22 12:57:51;;;;;;;3.37;0.83;;;11.10;99.90;;;;;;5138249;27;20477;-66